Time;durP1;ratioP1;P1;durP2;ratioP2;P2;SDS_P1;SDS_P2;PMS_P1;PMS_P2;Temp;Humidity;BMP_temperature;BMP_pressure;BME280_temperature;BME280_humidity;BME280_pressure;Samples;Min_cycle;Max_cycle;Signal;HPM_P1;HPM_P2
2022/11/29 00:01:35;;;;;;;10.70;10.30;;;21.30;63.20;;;;;;5054979;28;20450;-53
2022/11/29 00:04:02;;;;;;;10.70;10.40;;;21.20;63.20;;;;;;5054784;28;20455;-53
2022/11/29 00:06:32;;;;;;;11.43;11.03;;;21.20;63.10;;;;;;5035029;28;20899;-48
2022/11/29 00:09:00;;;;;;;11.20;10.80;;;21.20;63.10;;;;;;5034844;28;20712;-48
2022/11/29 00:14:18;;;;;;;11.50;11.10;;;21.20;63.90;;;;;;5036493;28;20440;-48
2022/11/29 00:16:50;;;;;;;12.00;11.60;;;21.10;63.20;;;;;;5054664;28;20530;-48
2022/11/29 00:19:17;;;;;;;11.87;11.37;;;21.10;63.20;;;;;;5054253;28;20451;-53
2022/11/29 00:21:44;;;;;;;12.30;11.80;;;21.10;63.20;;;;;;5054533;28;20443;-48
2022/11/29 00:24:11;;;;;;;12.10;11.70;;;21.10;63.20;;;;;;5054330;28;20547;-48
2022/11/29 00:26:39;;;;;;;11.60;11.30;;;21.10;63.30;;;;;;5054808;28;20970;-48
2022/11/29 00:29:06;;;;;;;11.90;11.50;;;21.10;63.30;;;;;;5054236;28;21022;-48
2022/11/29 00:31:33;;;;;;;12.27;11.80;;;21.10;63.40;;;;;;5054637;28;20436;-48
2022/11/29 00:34:02;;;;;;;11.33;11.00;;;21.10;63.40;;;;;;5054370;28;21331;-48
2022/11/29 00:36:30;;;;;;;11.50;11.10;;;21.10;64.20;;;;;;5053860;28;20532;-48
2022/11/29 00:38:57;;;;;;;10.80;10.50;;;21.00;63.30;;;;;;5054182;28;20535;-48
2022/11/29 00:41:24;;;;;;;11.13;10.73;;;21.00;63.50;;;;;;5054170;28;20578;-51
2022/11/29 00:43:52;;;;;;;10.80;10.40;;;21.00;63.50;;;;;;5054074;28;20460;-48
2022/11/29 00:46:19;;;;;;;10.77;10.37;;;21.00;63.60;;;;;;5054015;28;20448;-48
2022/11/29 00:48:45;;;;;;;10.77;10.37;;;21.00;63.60;;;;;;5054156;28;20438;-47
2022/11/29 00:51:12;;;;;;;11.30;10.90;;;21.00;63.70;;;;;;5053984;28;20459;-48
2022/11/29 00:53:39;;;;;;;11.10;10.70;;;21.00;63.70;;;;;;5053361;28;20463;-48
2022/11/29 00:56:07;;;;;;;12.03;11.60;;;21.00;63.80;;;;;;5053823;28;20468;-50
2022/11/29 00:58:35;;;;;;;10.80;10.50;;;20.90;63.70;;;;;;5054050;28;20876;-52
2022/11/29 01:01:04;;;;;;;10.50;10.20;;;20.90;63.70;;;;;;5053730;28;20900;-50
2022/11/29 01:03:32;;;;;;;10.43;10.13;;;20.90;63.90;;;;;;5053624;28;20867;-48
2022/11/29 01:06:03;;;;;;;10.43;10.13;;;20.90;63.90;;;;;;5053898;28;20444;-48
2022/11/29 01:08:29;;;;;;;11.63;11.23;;;20.90;64.10;;;;;;5054027;28;20978;-48
2022/11/29 01:11:04;;;;;;;11.43;10.93;;;20.90;64.80;;;;;;5053570;28;20440;-52
2022/11/29 01:13:32;;;;;;;10.40;10.10;;;20.90;63.90;;;;;;5053294;28;20566;-48
2022/11/29 01:15:59;;;;;;;10.50;10.20;;;20.90;64.20;;;;;;5053734;28;20879;-51
2022/11/29 01:18:29;;;;;;;10.53;10.23;;;20.90;64.30;;;;;;5053478;28;20479;-48
2022/11/29 01:20:58;;;;;;;10.33;10.03;;;20.80;64.30;;;;;;5053237;28;21010;-48
2022/11/29 01:23:25;;;;;;;10.80;10.43;;;20.80;64.30;;;;;;5053242;28;20527;-52
2022/11/29 01:25:57;;;;;;;10.60;10.30;;;20.80;64.50;;;;;;5053444;28;20448;-48
2022/11/29 01:28:24;;;;;;;11.07;10.77;;;20.80;64.50;;;;;;5053455;28;20450;-48
2022/11/29 01:30:50;;;;;;;10.67;10.27;;;20.80;64.60;;;;;;5053221;28;20528;-48
2022/11/29 01:33:18;;;;;;;10.47;10.07;;;20.80;64.60;;;;;;5052862;28;20966;-49
2022/11/29 01:35:49;;;;;;;11.57;11.20;;;20.80;64.60;;;;;;5099352;22;20487;-48
2022/11/29 01:38:17;;;;;;;11.23;10.83;;;20.80;64.70;;;;;;5064934;28;20447;-47
2022/11/29 01:40:45;;;;;;;10.90;10.50;;;20.80;64.80;;;;;;5072863;28;20479;-47
2022/11/29 01:43:17;;;;;;;10.23;9.93;;;20.70;64.80;;;;;;5073139;28;20443;-51
2022/11/29 01:45:45;;;;;;;10.37;10.00;;;20.70;64.90;;;;;;5033128;28;20464;-47
2022/11/29 01:48:13;;;;;;;10.63;10.23;;;20.70;65.00;;;;;;5033220;28;20539;-49
2022/11/29 01:50:41;;;;;;;9.93;9.53;;;20.70;65.10;;;;;;5033053;28;20528;-47
2022/11/29 01:53:12;;;;;;;11.40;11.00;;;20.70;65.20;;;;;;5033076;28;20532;-48
2022/11/29 01:55:43;;;;;;;10.03;9.73;;;20.70;66.00;;;;;;5032949;28;20560;-47
2022/11/29 01:58:10;;;;;;;10.37;10.00;;;20.70;65.20;;;;;;5032983;28;20475;-47
2022/11/29 02:00:37;;;;;;;10.73;10.33;;;20.70;65.20;;;;;;5032635;28;20564;-47
2022/11/29 02:03:11;;;;;;;11.30;10.80;;;20.70;65.40;;;;;;5032849;28;20472;-48
2022/11/29 02:05:40;;;;;;;10.50;10.20;;;20.70;65.40;;;;;;5032746;28;20508;-47
2022/11/29 02:08:12;;;;;;;10.40;10.00;;;20.60;65.40;;;;;;5032741;28;20472;-47
2022/11/29 02:10:51;;;;;;;10.73;10.33;;;20.60;65.20;;;;;;5032606;28;20528;-47
2022/11/29 02:13:28;;;;;;;10.50;10.20;;;20.60;65.20;;;;;;5032754;28;20843;-47
2022/11/29 02:16:02;;;;;;;10.50;10.17;;;20.60;65.20;;;;;;5045296;28;20882;-48
2022/11/29 02:18:39;;;;;;;10.20;9.90;;;20.60;64.90;;;;;;5052601;28;20998;-48
2022/11/29 02:21:18;;;;;;;10.37;9.97;;;20.60;64.80;;;;;;5052124;28;20515;-47
2022/11/29 02:24:22;;;;;;;10.50;10.20;;;20.60;64.90;;;;;;5049258;28;20536;-47
2022/11/29 02:27:28;;;;;;;10.87;10.47;;;20.60;65.10;;;;;;5032472;28;20536;-48
2022/11/29 02:30:09;;;;;;;10.50;10.20;;;20.50;65.10;;;;;;5032177;28;20496;-47
2022/11/29 02:33:12;;;;;;;11.13;10.70;;;20.50;65.40;;;;;;5032562;28;20541;-47
2022/11/29 02:36:10;;;;;;;10.30;9.90;;;20.50;65.60;;;;;;5031962;28;20560;-47
2022/11/29 02:39:07;;;;;;;10.40;10.10;;;20.50;66.50;;;;;;5032453;28;20440;-48
2022/11/29 02:41:49;;;;;;;10.30;10.00;;;20.50;65.90;;;;;;5032004;28;20552;-47
2022/11/29 02:44:49;;;;;;;11.00;10.60;;;20.50;65.90;;;;;;5031983;28;20528;-48
2022/11/29 02:47:27;;;;;;;10.80;10.40;;;20.50;65.90;;;;;;5032038;28;20511;-47
2022/11/29 02:50:18;;;;;;;10.30;10.00;;;20.50;65.90;;;;;;5031862;28;20447;-47
2022/11/29 02:52:52;;;;;;;10.77;10.33;;;20.50;65.90;;;;;;5032048;28;20472;-48
2022/11/29 02:55:28;;;;;;;10.63;10.27;;;20.50;65.80;;;;;;5031676;28;20460;-50
2022/11/29 02:58:00;;;;;;;10.23;9.83;;;20.50;65.90;;;;;;5031862;28;20460;-47
2022/11/29 03:00:28;;;;;;;11.87;11.10;;;20.50;65.70;;;;;;5031531;28;20476;-53
2022/11/29 03:03:02;;;;;;;11.40;11.00;;;20.50;65.70;;;;;;5031837;28;20495;-48
2022/11/29 03:05:40;;;;;;;11.17;10.67;;;20.50;65.70;;;;;;5031447;28;20552;-48
2022/11/29 03:08:16;;;;;;;11.63;11.17;;;20.50;66.40;;;;;;5031894;28;20456;-48
2022/11/29 03:10:55;;;;;;;11.27;10.87;;;20.40;65.50;;;;;;5031827;28;20472;-48
2022/11/29 03:13:29;;;;;;;10.93;10.43;;;20.50;65.60;;;;;;5031715;28;20531;-50
2022/11/29 03:16:01;;;;;;;11.17;10.77;;;20.50;65.60;;;;;;5031442;28;20515;-50
2022/11/29 03:18:38;;;;;;;10.73;10.33;;;20.50;65.60;;;;;;5031532;28;20524;-48
2022/11/29 03:21:18;;;;;;;11.03;10.63;;;20.50;66.40;;;;;;5031345;28;20486;-47
2022/11/29 03:23:48;;;;;;;11.77;11.27;;;20.50;65.60;;;;;;5031387;28;20539;-48
2022/11/29 03:26:18;;;;;;;10.93;10.60;;;20.50;65.60;;;;;;5031508;28;20817;-50
2022/11/29 03:28:53;;;;;;;11.30;10.90;;;20.50;65.50;;;;;;5031682;28;20480;-47
2022/11/29 03:31:26;;;;;;;11.40;11.00;;;20.50;65.60;;;;;;5031466;28;20445;-53
2022/11/29 03:33:59;;;;;;;10.80;10.30;;;20.40;65.50;;;;;;5031411;28;20480;-48
2022/11/29 03:36:37;;;;;;;11.10;10.70;;;20.50;65.70;;;;;;5031762;28;20507;-52
2022/11/29 03:39:07;;;;;;;10.80;10.37;;;20.50;65.90;;;;;;5031327;28;20476;-48
2022/11/29 03:41:40;;;;;;;11.60;11.10;;;20.40;65.90;;;;;;5031203;28;20999;-48
2022/11/29 03:44:13;;;;;;;10.77;10.37;;;20.40;66.90;;;;;;5031237;28;21011;-49
2022/11/29 03:46:47;;;;;;;11.53;11.03;;;20.40;66.30;;;;;;5031371;28;20891;-48
2022/11/29 03:49:21;;;;;;;10.83;10.43;;;20.40;66.50;;;;;;5031164;28;20440;-47
2022/11/29 03:51:59;;;;;;;12.07;11.57;;;20.40;66.40;;;;;;5031472;28;20442;-48
2022/11/29 03:54:30;;;;;;;12.80;12.03;;;20.40;66.40;;;;;;5031420;28;20518;-48
2022/11/29 03:56:58;;;;;;;11.40;10.80;;;20.40;66.50;;;;;;5031699;28;20531;-48
2022/11/29 03:59:37;;;;;;;11.83;11.43;;;20.40;66.50;;;;;;5031280;28;20502;-52
2022/11/29 04:02:25;;;;;;;11.70;11.20;;;20.40;66.40;;;;;;5030974;28;20567;-48
2022/11/29 04:05:25;;;;;;;11.87;11.37;;;20.40;66.70;;;;;;5031288;28;20557;-47
2022/11/29 04:08:26;;;;;;;12.50;12.03;;;20.40;66.40;;;;;;5031233;28;20492;-47
2022/11/29 04:11:24;;;;;;;11.10;10.70;;;20.30;66.10;;;;;;4991019;28;20437;-47
2022/11/29 04:14:29;;;;;;;11.63;11.13;;;20.30;66.10;;;;;;5030935;28;20451;-47
2022/11/29 04:17:47;;;;;;;11.40;11.00;;;20.30;65.90;;;;;;4954524;28;20460;-48
2022/11/29 04:20:47;;;;;;;12.20;11.70;;;20.30;66.00;;;;;;5030843;28;20437;-47
2022/11/29 04:23:55;;;;;;;12.43;11.73;;;20.30;65.90;;;;;;5031013;28;20476;-51
2022/11/29 04:26:59;;;;;;;11.90;11.40;;;20.30;65.90;;;;;;5014283;28;20911;-54
2022/11/29 04:29:57;;;;;;;11.60;11.20;;;20.30;66.00;;;;;;5032718;28;20519;-48
2022/11/29 04:32:48;;;;;;;12.53;12.13;;;20.30;66.00;;;;;;5027544;28;20480;-48
2022/11/29 04:35:35;;;;;;;11.97;11.47;;;20.30;66.10;;;;;;5034406;28;20500;-49
2022/11/29 04:38:26;;;;;;;12.50;12.10;;;20.30;66.20;;;;;;5034424;28;20445;-47
2022/11/29 04:41:32;;;;;;;13.73;12.87;;;20.30;66.30;;;;;;5034019;28;20476;-47
2022/11/29 04:44:18;;;;;;;12.43;11.97;;;20.30;66.40;;;;;;5001045;28;20496;-48
2022/11/29 04:47:03;;;;;;;12.10;11.60;;;20.30;66.40;;;;;;5034388;28;20528;-47
2022/11/29 04:50:01;;;;;;;13.37;12.83;;;20.20;66.20;;;;;;5034078;28;20488;-48
2022/11/29 04:52:48;;;;;;;12.93;12.30;;;20.20;66.70;;;;;;5033968;28;20481;-50
2022/11/29 04:55:28;;;;;;;12.67;12.10;;;20.20;67.10;;;;;;5034279;28;20819;-48
2022/11/29 04:58:04;;;;;;;12.70;11.97;;;20.20;68.10;;;;;;5034372;28;20452;-47
2022/11/29 05:00:37;;;;;;;12.47;11.87;;;20.20;68.00;;;;;;5033739;28;20495;-47
2022/11/29 05:03:11;;;;;;;13.77;13.00;;;20.20;67.90;;;;;;5034046;28;20994;-47
2022/11/29 05:05:44;;;;;;;14.70;13.90;;;20.20;67.80;;;;;;5034044;28;20828;-48
2022/11/29 05:08:25;;;;;;;15.03;14.23;;;20.20;67.70;;;;;;5034121;28;21008;-51
2022/11/29 05:11:00;;;;;;;13.37;12.67;;;20.20;67.80;;;;;;5033629;28;20839;-48
2022/11/29 05:13:37;;;;;;;14.00;13.30;;;20.20;67.70;;;;;;5034879;28;20455;-52
2022/11/29 05:16:16;;;;;;;14.13;13.23;;;20.20;67.90;;;;;;5033708;28;20500;-49
2022/11/29 05:19:16;;;;;;;13.87;13.07;;;20.20;68.20;;;;;;5034033;28;20441;-49
2022/11/29 05:21:52;;;;;;;13.43;12.83;;;20.20;68.20;;;;;;5034036;28;20568;-53
2022/11/29 05:24:31;;;;;;;15.17;14.00;;;20.20;68.10;;;;;;5033623;28;20462;-49
2022/11/29 05:27:08;;;;;;;13.07;12.57;;;20.20;68.20;;;;;;5033967;28;20871;-50
2022/11/29 05:29:43;;;;;;;14.17;13.47;;;20.20;68.40;;;;;;5037762;28;20538;-49
2022/11/29 05:32:31;;;;;;;14.03;13.30;;;20.20;68.40;;;;;;5043904;28;20527;-49
2022/11/29 05:35:27;;;;;;;20.83;16.77;;;20.20;70.20;;;;;;5033290;28;20473;-59
2022/11/29 05:37:57;;;;;;;19.07;15.87;;;20.30;79.90;;;;;;5033652;28;20484;-57
2022/11/29 05:40:46;;;;;;;18.33;16.50;;;20.30;91.40;;;;;;5043486;28;20454;-58
2022/11/29 05:43:29;;;;;;;25.03;17.13;;;20.30;92.50;;;;;;5036207;28;20532;-55
2022/11/29 05:46:04;;;;;;;20.53;16.17;;;20.30;91.40;;;;;;5050157;28;20460;-58
2022/11/29 05:48:43;;;;;;;16.57;15.13;;;20.30;90.50;;;;;;5052458;28;20954;-56
2022/11/29 05:51:20;;;;;;;17.47;16.07;;;20.30;88.00;;;;;;5053130;28;20444;-58
2022/11/29 05:53:57;;;;;;;16.70;15.17;;;20.30;85.30;;;;;;5053157;28;20440;-58
2022/11/29 05:56:34;;;;;;;16.60;15.37;;;20.30;83.90;;;;;;5052807;28;20862;-59
2022/11/29 05:59:05;;;;;;;17.87;16.30;;;20.30;82.90;;;;;;5052895;28;20483;-59
2022/11/29 06:01:44;;;;;;;15.90;14.80;;;20.30;82.10;;;;;;5052836;28;21195;-60
2022/11/29 06:04:17;;;;;;;16.53;15.27;;;20.30;81.30;;;;;;5052784;28;20958;-58
2022/11/29 06:06:49;;;;;;;16.97;15.87;;;20.30;80.50;;;;;;5052845;28;20486;-59
2022/11/29 06:09:21;;;;;;;16.60;14.80;;;20.30;79.80;;;;;;5052672;28;20463;-59
2022/11/29 06:11:52;;;;;;;17.47;15.87;;;20.30;79.20;;;;;;5052627;28;20475;-59
2022/11/29 06:14:35;;;;;;;16.27;15.20;;;20.30;78.70;;;;;;5052663;28;20531;-58
2022/11/29 06:17:28;;;;;;;18.10;17.00;;;20.30;78.00;;;;;;5052509;28;21025;-58
2022/11/29 06:20:25;;;;;;;16.50;14.80;;;20.30;77.40;;;;;;5052293;28;20506;-59
2022/11/29 06:23:17;;;;;;;16.90;15.50;;;20.30;76.90;;;;;;5051193;28;20480;-58
2022/11/29 06:25:59;;;;;;;15.80;14.27;;;20.30;76.50;;;;;;5052352;28;20491;-59
2022/11/29 06:28:38;;;;;;;17.37;16.10;;;20.30;76.10;;;;;;5052430;28;20478;-59
2022/11/29 06:31:14;;;;;;;16.27;15.37;;;20.20;75.50;;;;;;5052330;28;20507;-60
2022/11/29 06:33:51;;;;;;;16.30;15.20;;;20.20;75.40;;;;;;5052786;28;20509;-58
2022/11/29 06:36:22;;;;;;;15.50;14.60;;;20.20;74.80;;;;;;5052462;28;20545;-58
2022/11/29 06:38:49;;;;;;;16.57;15.47;;;20.20;74.60;;;;;;5051958;28;20448;-59
2022/11/29 06:41:20;;;;;;;16.80;15.80;;;20.20;74.30;;;;;;5052111;28;20490;-60
2022/11/29 06:43:48;;;;;;;15.70;14.70;;;20.20;73.90;;;;;;5052282;28;20479;-59
2022/11/29 06:46:24;;;;;;;17.83;16.63;;;20.20;73.50;;;;;;5051999;28;20547;-59
2022/11/29 06:48:58;;;;;;;16.53;15.37;;;20.20;73.30;;;;;;5051853;28;20932;-59
2022/11/29 06:51:31;;;;;;;17.33;16.23;;;20.20;73.00;;;;;;5051550;28;20480;-58
2022/11/29 06:54:11;;;;;;;16.00;15.13;;;20.20;72.80;;;;;;5052462;28;20531;-59
2022/11/29 06:56:45;;;;;;;15.30;14.60;;;20.10;72.40;;;;;;5052357;28;20460;-58
2022/11/29 06:59:26;;;;;;;14.73;13.93;;;20.20;72.30;;;;;;5052170;28;20440;-60
2022/11/29 07:01:56;;;;;;;15.17;14.27;;;20.10;72.80;;;;;;5052082;28;20566;-60
2022/11/29 07:04:44;;;;;;;15.37;14.10;;;20.10;71.90;;;;;;5054625;28;20502;-60
2022/11/29 07:07:15;;;;;;;13.33;12.63;;;20.10;71.80;;;;;;5053366;28;20909;-60
2022/11/29 07:09:43;;;;;;;17.37;16.00;;;20.10;72.30;;;;;;5051646;28;20441;-58
2022/11/29 07:12:11;;;;;;;16.53;15.43;;;20.10;71.40;;;;;;5051706;28;20440;-58
2022/11/29 07:14:38;;;;;;;15.30;14.27;;;20.10;71.20;;;;;;5051649;28;20558;-57
2022/11/29 07:17:16;;;;;;;17.07;16.00;;;20.10;71.10;;;;;;5051670;28;20443;-58
2022/11/29 07:19:54;;;;;;;15.70;14.77;;;20.10;70.90;;;;;;5051567;28;20447;-60
2022/11/29 07:22:38;;;;;;;16.20;14.97;;;20.10;70.70;;;;;;5051885;28;21010;-55
2022/11/29 07:25:15;;;;;;;15.20;14.40;;;20.10;70.70;;;;;;5051751;28;20460;-57
2022/11/29 07:27:51;;;;;;;15.37;14.53;;;20.10;70.60;;;;;;5051634;28;20944;-57
2022/11/29 07:30:20;;;;;;;15.53;14.57;;;20.10;70.60;;;;;;5051308;28;20538;-58
2022/11/29 07:32:59;;;;;;;14.37;13.53;;;20.00;70.30;;;;;;5051362;28;20495;-60
2022/11/29 07:35:34;;;;;;;15.00;14.40;;;20.00;70.30;;;;;;5076281;23;21012;-51
2022/11/29 07:38:11;;;;;;;15.70;14.43;;;20.00;70.20;;;;;;5063078;28;20879;-55
2022/11/29 07:40:45;;;;;;;14.50;13.80;;;20.00;70.10;;;;;;5071216;28;20861;-50
2022/11/29 07:43:29;;;;;;;14.77;13.97;;;20.10;70.10;;;;;;5071238;28;20473;-50
2022/11/29 07:45:57;;;;;;;16.73;15.83;;;20.00;69.90;;;;;;5071268;28;20887;-53
2022/11/29 07:48:23;;;;;;;15.40;14.30;;;20.10;69.90;;;;;;5071216;28;20501;-52
2022/11/29 07:50:52;;;;;;;15.67;14.67;;;20.00;69.70;;;;;;5071040;28;20478;-50
2022/11/29 07:53:21;;;;;;;16.03;14.90;;;20.10;69.60;;;;;;5071186;28;20471;-51
2022/11/29 07:55:49;;;;;;;15.70;14.90;;;20.10;69.60;;;;;;5071114;28;20473;-51
2022/11/29 07:58:17;;;;;;;15.53;14.57;;;20.10;69.50;;;;;;5071166;28;20438;-50
2022/11/29 08:00:45;;;;;;;15.60;14.57;;;20.00;69.30;;;;;;5070920;28;20475;-52
2022/11/29 08:03:12;;;;;;;15.63;14.40;;;20.10;69.20;;;;;;5072678;28;20500;-53
2022/11/29 08:05:39;;;;;;;15.27;14.07;;;20.10;70.00;;;;;;5075005;28;20463;-50
2022/11/29 08:08:07;;;;;;;15.57;14.77;;;20.10;69.20;;;;;;5074920;28;20446;-51
2022/11/29 08:10:34;;;;;;;15.00;14.10;;;20.10;69.10;;;;;;5074612;28;20538;-51
2022/11/29 08:13:01;;;;;;;15.63;14.80;;;20.00;68.90;;;;;;5074914;28;20435;-50
2022/11/29 08:15:28;;;;;;;14.80;14.17;;;20.00;68.80;;;;;;5074746;28;20465;-53
2022/11/29 08:17:55;;;;;;;16.03;14.83;;;20.00;68.80;;;;;;5074701;28;20457;-51
2022/11/29 08:20:22;;;;;;;15.13;14.37;;;20.00;68.60;;;;;;5074670;28;20530;-55
2022/11/29 08:22:54;;;;;;;17.03;16.13;;;20.00;68.60;;;;;;5074563;28;20567;-51
2022/11/29 08:25:22;;;;;;;15.80;14.90;;;20.00;68.50;;;;;;5074759;28;20524;-51
2022/11/29 08:27:50;;;;;;;15.20;14.30;;;20.00;69.20;;;;;;5074613;28;20511;-50
2022/11/29 08:30:21;;;;;;;15.40;14.40;;;20.00;68.40;;;;;;5074279;28;20937;-50
2022/11/29 08:32:48;;;;;;;14.23;13.50;;;20.00;68.30;;;;;;5074451;28;20927;-50
2022/11/29 08:35:15;;;;;;;15.63;14.93;;;20.00;68.20;;;;;;5074191;28;21004;-51
2022/11/29 08:37:42;;;;;;;14.70;13.80;;;20.00;68.10;;;;;;5074464;28;21010;-50
2022/11/29 08:40:10;;;;;;;14.97;14.20;;;20.00;68.00;;;;;;5074201;28;20443;-50
2022/11/29 08:42:38;;;;;;;15.27;14.57;;;20.00;67.90;;;;;;5074210;28;20825;-52
2022/11/29 08:45:06;;;;;;;14.97;14.10;;;20.00;68.00;;;;;;5074140;28;20459;-52
2022/11/29 08:47:35;;;;;;;17.60;16.53;;;20.00;67.80;;;;;;5074135;28;20934;-54
2022/11/29 08:50:02;;;;;;;15.47;14.70;;;20.00;67.70;;;;;;5074002;28;20486;-55
2022/11/29 08:55:15;;;;;;;15.20;14.27;;;20.00;67.60;;;;;;5074200;28;20473;-53
2022/11/29 08:57:43;;;;;;;14.07;13.37;;;20.00;67.50;;;;;;5074091;28;20521;-50
2022/11/29 09:00:11;;;;;;;15.63;14.60;;;20.00;67.50;;;;;;5073821;28;20497;-50
2022/11/29 09:02:38;;;;;;;16.03;15.13;;;20.00;67.40;;;;;;5073898;28;21013;-54
2022/11/29 09:05:06;;;;;;;15.07;14.33;;;20.00;67.30;;;;;;5073737;28;20550;-53
2022/11/29 09:07:33;;;;;;;14.70;14.00;;;20.00;67.20;;;;;;5073847;28;20522;-52
2022/11/29 09:10:03;;;;;;;15.23;14.40;;;20.00;67.10;;;;;;5073564;28;20443;-51
2022/11/29 09:12:31;;;;;;;16.43;15.53;;;20.00;67.10;;;;;;5074089;28;20444;-50
2022/11/29 09:14:59;;;;;;;15.07;14.13;;;20.00;67.10;;;;;;5072982;28;20443;-54
2022/11/29 09:17:26;;;;;;;15.27;14.37;;;20.00;67.10;;;;;;5074012;28;20454;-51
2022/11/29 09:19:53;;;;;;;14.77;14.07;;;20.00;67.00;;;;;;5073403;28;20547;-55
2022/11/29 09:22:20;;;;;;;14.80;14.10;;;20.00;66.90;;;;;;5073701;28;20561;-52
2022/11/29 09:24:47;;;;;;;15.07;14.20;;;20.00;66.80;;;;;;5073355;28;20447;-50
2022/11/29 09:27:13;;;;;;;15.27;14.47;;;20.00;66.70;;;;;;5073465;28;20478;-56
2022/11/29 09:29:40;;;;;;;16.60;15.70;;;20.00;66.70;;;;;;5073330;28;20443;-50
2022/11/29 09:32:09;;;;;;;15.70;14.90;;;20.00;66.70;;;;;;5073225;28;20531;-52
2022/11/29 09:34:36;;;;;;;16.00;15.00;;;19.90;66.40;;;;;;5073286;28;20479;-51
2022/11/29 09:37:05;;;;;;;14.80;13.93;;;19.90;66.40;;;;;;5073130;28;20481;-52
2022/11/29 09:39:32;;;;;;;16.07;15.23;;;19.90;66.30;;;;;;5073058;28;20534;-55
2022/11/29 09:42:09;;;;;;;16.37;15.57;;;19.90;66.30;;;;;;5073122;28;20526;-50
2022/11/29 09:44:48;;;;;;;15.93;15.13;;;19.90;66.20;;;;;;5073191;28;20459;-51
2022/11/29 09:47:31;;;;;;;15.40;14.67;;;19.90;66.20;;;;;;5073262;28;20447;-50
2022/11/29 09:50:14;;;;;;;14.70;13.90;;;19.90;66.20;;;;;;5072943;28;20486;-51
2022/11/29 09:52:51;;;;;;;15.30;14.53;;;19.90;65.40;;;;;;5073203;28;20470;-50
2022/11/29 09:55:38;;;;;;;14.73;14.13;;;19.90;66.10;;;;;;5073214;28;20498;-55
2022/11/29 09:58:09;;;;;;;15.87;15.10;;;19.90;66.10;;;;;;5073061;28;20542;-51
2022/11/29 10:00:44;;;;;;;15.60;14.80;;;19.90;66.10;;;;;;5072544;28;20474;-50
2022/11/29 10:03:19;;;;;;;15.60;14.80;;;19.90;66.10;;;;;;5072735;28;20932;-54
2022/11/29 10:05:49;;;;;;;15.17;14.47;;;19.90;66.00;;;;;;5072720;28;20736;-49
2022/11/29 10:08:23;;;;;;;15.23;14.43;;;19.90;66.10;;;;;;5072668;28;20471;-51
2022/11/29 10:10:53;;;;;;;15.37;14.60;;;19.90;66.20;;;;;;5072551;28;20872;-49
2022/11/29 10:13:24;;;;;;;15.37;14.57;;;19.80;66.10;;;;;;5072527;28;20468;-50
2022/11/29 10:15:53;;;;;;;16.07;15.27;;;19.80;66.70;;;;;;5072589;28;20877;-51
2022/11/29 10:18:26;;;;;;;15.57;14.77;;;19.80;66.30;;;;;;5072564;28;20455;-49
2022/11/29 10:20:57;;;;;;;15.27;14.50;;;19.80;66.30;;;;;;5072159;28;20447;-50
2022/11/29 10:23:29;;;;;;;15.93;15.10;;;19.80;66.30;;;;;;5072338;28;20569;-50
2022/11/29 10:25:57;;;;;;;15.13;14.17;;;19.90;66.40;;;;;;5071610;28;20463;-50
2022/11/29 10:28:26;;;;;;;15.53;14.90;;;19.90;66.40;;;;;;5072067;28;20984;-50
2022/11/29 10:30:55;;;;;;;14.43;13.83;;;19.90;66.30;;;;;;5072065;28;20494;-54
2022/11/29 10:33:27;;;;;;;16.03;15.03;;;19.90;66.30;;;;;;5072271;28;20466;-51
2022/11/29 10:35:57;;;;;;;15.20;14.40;;;19.90;66.20;;;;;;5071954;28;20517;-51
2022/11/29 10:38:24;;;;;;;16.23;15.20;;;19.90;66.20;;;;;;5072126;28;20490;-52
2022/11/29 10:40:55;;;;;;;14.90;14.27;;;19.90;66.20;;;;;;5071963;28;20973;-50
2022/11/29 10:43:22;;;;;;;16.50;15.57;;;19.90;66.20;;;;;;5071974;28;20570;-54
2022/11/29 10:45:54;;;;;;;14.90;14.20;;;19.90;66.20;;;;;;5072060;28;20553;-50
2022/11/29 10:48:26;;;;;;;15.60;14.70;;;19.90;66.10;;;;;;5072020;28;20452;-51
2022/11/29 10:50:53;;;;;;;15.73;14.80;;;19.90;66.10;;;;;;5071777;28;20449;-50
2022/11/29 10:53:24;;;;;;;15.80;14.90;;;19.90;66.10;;;;;;5071797;28;20475;-51
2022/11/29 10:55:57;;;;;;;15.00;14.20;;;19.90;66.10;;;;;;5071798;28;20870;-50
2022/11/29 10:58:25;;;;;;;15.20;14.20;;;19.80;66.00;;;;;;5071815;28;20535;-50
2022/11/29 11:00:55;;;;;;;15.00;14.20;;;19.90;66.80;;;;;;5071517;28;20482;-53
2022/11/29 11:03:32;;;;;;;15.80;14.80;;;19.90;66.00;;;;;;5071659;28;20485;-52
2022/11/29 11:06:02;;;;;;;15.17;14.47;;;19.90;66.00;;;;;;5071946;28;20467;-50
2022/11/29 11:08:30;;;;;;;15.67;14.83;;;19.80;65.80;;;;;;5071647;28;20502;-50
2022/11/29 11:10:58;;;;;;;14.40;13.87;;;19.80;65.80;;;;;;5071657;28;20538;-51
2022/11/29 11:13:27;;;;;;;14.93;14.20;;;19.80;65.80;;;;;;5071511;28;20443;-50
2022/11/29 11:16:06;;;;;;;14.37;13.77;;;19.80;65.70;;;;;;5071509;28;20484;-50
2022/11/29 11:18:36;;;;;;;15.17;14.47;;;19.80;65.70;;;;;;5071619;28;20474;-50
2022/11/29 11:21:03;;;;;;;15.70;14.90;;;19.90;65.80;;;;;;5071366;28;20449;-55
2022/11/29 11:23:33;;;;;;;15.27;14.57;;;19.80;65.70;;;;;;5071639;28;20570;-51
2022/11/29 11:26:03;;;;;;;14.70;14.00;;;19.80;65.60;;;;;;5071680;28;20467;-51
2022/11/29 11:28:39;;;;;;;14.40;13.80;;;19.80;65.60;;;;;;5071388;28;20989;-50
2022/11/29 11:31:08;;;;;;;14.50;13.90;;;19.80;65.50;;;;;;5071135;28;21024;-51
2022/11/29 11:33:38;;;;;;;14.60;14.00;;;19.80;65.50;;;;;;5071426;28;20445;-52
2022/11/29 11:36:09;;;;;;;15.27;14.57;;;19.80;65.50;;;;;;5071314;28;20471;-54
2022/11/29 11:38:38;;;;;;;14.90;14.10;;;19.80;65.40;;;;;;5073956;28;20447;-50
2022/11/29 11:41:15;;;;;;;14.67;14.13;;;19.80;65.40;;;;;;5075342;28;20447;-51
2022/11/29 11:43:42;;;;;;;15.77;15.03;;;19.80;65.40;;;;;;5075375;28;20617;-51
2022/11/29 11:46:09;;;;;;;15.23;14.57;;;19.80;65.40;;;;;;5075188;28;20473;-51
2022/11/29 11:48:40;;;;;;;15.20;14.47;;;19.80;65.30;;;;;;5075421;28;20446;-52
2022/11/29 11:51:21;;;;;;;15.27;14.53;;;19.80;65.30;;;;;;5075095;28;20537;-55
2022/11/29 11:53:51;;;;;;;15.23;14.43;;;19.80;65.20;;;;;;5075429;28;20435;-56
2022/11/29 11:56:18;;;;;;;15.63;14.93;;;19.80;65.20;;;;;;5075186;28;21033;-54
2022/11/29 11:58:49;;;;;;;14.83;14.13;;;19.80;65.20;;;;;;5074957;28;20543;-56
2022/11/29 12:01:23;;;;;;;15.60;14.97;;;19.80;65.20;;;;;;5075392;28;20453;-52
2022/11/29 12:03:56;;;;;;;15.00;14.20;;;19.80;65.20;;;;;;5075037;28;20483;-55
2022/11/29 12:06:28;;;;;;;14.83;14.20;;;19.80;65.10;;;;;;5075228;28;20473;-52
2022/11/29 12:09:02;;;;;;;16.70;15.97;;;19.80;65.00;;;;;;5074868;28;20461;-51
2022/11/29 12:11:37;;;;;;;15.33;14.43;;;19.80;65.00;;;;;;5074852;28;20494;-51
2022/11/29 12:14:05;;;;;;;14.90;14.30;;;19.80;65.00;;;;;;5074915;28;20860;-51
2022/11/29 12:16:39;;;;;;;15.00;14.30;;;19.80;65.70;;;;;;5075085;28;20506;-56
2022/11/29 12:19:16;;;;;;;15.80;14.90;;;19.80;64.90;;;;;;5074597;28;20534;-51
2022/11/29 12:21:47;;;;;;;14.43;13.77;;;19.80;64.90;;;;;;5074722;28;20478;-52
2022/11/29 12:24:23;;;;;;;14.40;13.80;;;19.80;64.80;;;;;;5074600;28;20474;-50
2022/11/29 12:26:51;;;;;;;14.80;14.20;;;19.70;64.60;;;;;;5074516;28;20972;-50
2022/11/29 12:29:21;;;;;;;16.53;15.73;;;19.80;64.70;;;;;;5074433;28;20451;-51
2022/11/29 12:31:59;;;;;;;15.07;14.40;;;19.80;64.60;;;;;;5074441;28;20447;-51
2022/11/29 12:34:40;;;;;;;13.90;13.30;;;19.80;64.50;;;;;;5074454;28;20473;-52
2022/11/29 12:37:15;;;;;;;14.40;13.70;;;19.80;64.50;;;;;;5074506;28;20532;-52
2022/11/29 12:39:52;;;;;;;14.47;13.77;;;19.80;64.50;;;;;;5074259;28;20434;-52
2022/11/29 12:42:39;;;;;;;13.70;13.20;;;19.80;64.50;;;;;;5074629;28;20435;-54
2022/11/29 12:45:24;;;;;;;15.80;15.07;;;19.70;64.60;;;;;;5074225;28;20451;-50
2022/11/29 12:47:59;;;;;;;15.27;14.47;;;19.70;64.80;;;;;;5074256;28;20888;-56
2022/11/29 12:50:39;;;;;;;14.60;13.90;;;19.70;64.90;;;;;;5072830;28;20474;-52
2022/11/29 12:53:21;;;;;;;14.80;14.10;;;19.70;65.70;;;;;;5074054;28;20443;-54
2022/11/29 12:55:59;;;;;;;14.67;13.97;;;19.70;65.00;;;;;;5074005;28;20562;-50
2022/11/29 12:58:33;;;;;;;15.20;14.40;;;19.80;65.10;;;;;;5074131;28;20435;-51
2022/11/29 13:01:10;;;;;;;15.47;14.77;;;19.80;65.20;;;;;;5074089;28;20451;-51
2022/11/29 13:03:45;;;;;;;13.93;13.43;;;19.80;65.10;;;;;;5073982;28;20914;-54
2022/11/29 13:06:21;;;;;;;15.60;14.83;;;19.80;65.20;;;;;;5073820;28;20470;-54
2022/11/29 13:09:28;;;;;;;14.10;13.50;;;19.80;65.10;;;;;;5073732;28;20475;-53
2022/11/29 13:11:59;;;;;;;14.67;13.83;;;19.80;65.00;;;;;;5073718;28;20522;-50